Terminal Aerodrome Forecast
Issued by NWS

Home | Current Version | Previous Version | Text Only | Print | Product List | Glossary On
Versions: 1 2 3 4 5 6 7 8 9 10 11 12 13 14 15 16
000
FTUS45 KGJT 210539
TAFRIL
TAF
KRIL 210539Z 2106/2206 16003KT P6SM BKN100
     FM210900 VRB03KT P6SM SCT035 BKN100
     FM211800 27007KT P6SM VCTS BKN140CB
     FM212100 31009KT P6SM VCTS BKN110CB
     FM220000 01007KT P6SM OVC110
     FM220200 10005KT P6SM OVC090=

USA.gov is the U.S. government's official web portal to all federal, state and local government web resources and services.